createdAt,value
2023-01-09T00:01:35.343Z,31.20
2023-01-09T00:04:03.387Z,32.60
2023-01-09T00:06:34.559Z,30.50
2023-01-09T00:09:02.891Z,29.00
2023-01-09T00:11:30.876Z,29.40
2023-01-09T00:13:58.795Z,33.20
2023-01-09T00:16:28.588Z,31.40
2023-01-09T00:18:58.004Z,32.30
2023-01-09T00:21:25.910Z,31.10
2023-01-09T00:23:54.624Z,30.40
2023-01-09T00:26:23.055Z,28.20
2023-01-09T00:28:52.741Z,31.90
2023-01-09T00:31:21.767Z,31.40
2023-01-09T00:34:01.230Z,30.90
2023-01-09T00:36:29.776Z,31.30
2023-01-09T00:38:57.941Z,32.70
2023-01-09T00:41:31.848Z,33.00
2023-01-09T00:44:18.365Z,35.10
2023-01-09T00:46:51.526Z,33.50
2023-01-09T00:49:19.643Z,36.20
2023-01-09T00:51:48.128Z,36.10
2023-01-09T00:54:18.499Z,33.00
2023-01-09T00:56:46.555Z,34.80
2023-01-09T00:59:14.435Z,32.60
2023-01-09T01:01:42.574Z,34.80
2023-01-09T01:04:29.210Z,36.00
2023-01-09T01:07:15.515Z,36.20
2023-01-09T01:09:43.402Z,32.80
2023-01-09T01:12:11.276Z,31.30
2023-01-09T01:14:39.554Z,32.80
2023-01-09T01:17:08.291Z,32.50
2023-01-09T01:19:36.626Z,31.80
2023-01-09T01:22:04.889Z,30.40
2023-01-09T01:24:32.779Z,30.10
2023-01-09T01:27:00.618Z,37.60
2023-01-09T01:29:28.974Z,35.90
2023-01-09T01:31:56.906Z,33.50
2023-01-09T01:34:25.343Z,32.70
2023-01-09T01:36:53.205Z,31.40
2023-01-09T01:39:21.317Z,30.20
2023-01-09T01:41:49.254Z,34.00
2023-01-09T01:45:11.476Z,35.70
2023-01-09T01:48:10.514Z,30.20
2023-01-09T01:50:55.507Z,29.50
2023-01-09T01:53:49.461Z,30.60
2023-01-09T01:56:29.367Z,33.00
2023-01-09T01:59:20.417Z,32.20
2023-01-09T02:01:52.435Z,34.20
2023-01-09T02:04:20.953Z,35.40
2023-01-09T02:06:52.355Z,34.60
2023-01-09T02:09:22.937Z,35.10
2023-01-09T02:11:56.478Z,34.10
2023-01-09T02:14:30.790Z,35.70
2023-01-09T02:17:38.033Z,32.60
2023-01-09T02:21:00.982Z,35.10
2023-01-09T02:24:07.635Z,37.50
2023-01-09T02:27:00.734Z,34.20
2023-01-09T02:30:16.505Z,34.10
2023-01-09T02:33:12.435Z,31.50
2023-01-09T02:36:19.715Z,33.10
2023-01-09T02:39:18.608Z,33.20
2023-01-09T02:42:23.404Z,33.70
2023-01-09T02:44:51.539Z,37.70
2023-01-09T02:47:20.029Z,34.60
2023-01-09T02:50:01.932Z,35.00
2023-01-09T02:52:55.344Z,37.70
2023-01-09T02:55:56.942Z,34.50
2023-01-09T02:58:33.838Z,35.20
2023-01-09T03:02:12.394Z,35.70
2023-01-09T03:05:09.619Z,36.80
2023-01-09T03:07:43.813Z,36.60
2023-01-09T03:10:23.872Z,38.20
2023-01-09T03:12:54.366Z,37.60
2023-01-09T03:15:27.068Z,37.60
2023-01-09T03:17:55.536Z,36.20
2023-01-09T03:20:27.575Z,35.20
2023-01-09T03:22:57.606Z,36.20
2023-01-09T03:25:27.835Z,33.80
2023-01-09T03:28:05.870Z,33.10
2023-01-09T03:30:35.519Z,34.60
2023-01-09T03:33:03.603Z,36.50
2023-01-09T03:35:31.438Z,36.90
2023-01-09T03:37:59.354Z,37.20
2023-01-09T03:40:27.405Z,34.10
2023-01-09T03:42:55.336Z,34.20
2023-01-09T03:45:23.230Z,34.00
2023-01-09T03:47:52.954Z,33.30
2023-01-09T03:50:21.041Z,32.20
2023-01-09T03:52:48.856Z,33.90
2023-01-09T03:55:16.910Z,34.90
2023-01-09T03:57:44.887Z,35.60
2023-01-09T04:00:13.604Z,36.10
2023-01-09T04:02:41.942Z,42.30
2023-01-09T04:05:10.020Z,46.60
2023-01-09T04:07:37.903Z,47.80
2023-01-09T04:10:06.612Z,39.40
2023-01-09T04:12:34.524Z,39.60
2023-01-09T04:15:02.444Z,32.50
2023-01-09T04:17:30.352Z,30.10
2023-01-09T04:19:59.289Z,34.00
2023-01-09T04:22:27.225Z,29.70
2023-01-09T04:24:55.140Z,28.80
2023-01-09T04:27:23.388Z,31.40
2023-01-09T04:29:51.362Z,28.30
2023-01-09T04:32:19.269Z,28.60
2023-01-09T04:34:47.126Z,26.00
2023-01-09T04:37:15.409Z,28.80
2023-01-09T04:39:46.121Z,27.40
2023-01-09T04:42:14.114Z,27.50
2023-01-09T04:44:42.047Z,26.20
2023-01-09T04:47:09.962Z,28.50
2023-01-09T04:49:37.828Z,28.70
2023-01-09T04:52:06.180Z,30.70
2023-01-09T04:54:34.597Z,30.00
2023-01-09T04:57:02.504Z,29.60
2023-01-09T04:59:30.437Z,35.70
2023-01-09T05:01:59.450Z,35.90
2023-01-09T05:04:27.626Z,44.80
2023-01-09T05:06:55.587Z,43.20
2023-01-09T05:09:23.744Z,37.80
2023-01-09T05:11:51.759Z,36.40
2023-01-09T05:14:19.951Z,33.40
2023-01-09T05:16:47.865Z,32.70
2023-01-09T05:19:16.006Z,32.50
2023-01-09T05:21:43.946Z,32.60
2023-01-09T05:24:11.875Z,31.70
2023-01-09T05:26:39.850Z,33.30
2023-01-09T05:29:07.823Z,32.20
2023-01-09T05:31:35.708Z,31.30
2023-01-09T05:34:03.672Z,32.80
2023-01-09T05:36:31.592Z,34.80
2023-01-09T05:38:59.507Z,39.40
2023-01-09T05:41:27.551Z,37.90
2023-01-09T05:43:55.532Z,34.70
2023-01-09T05:46:23.467Z,34.00
2023-01-09T05:48:51.334Z,35.10
2023-01-09T05:51:19.171Z,40.80
2023-01-09T05:53:47.025Z,38.80
2023-01-09T05:56:15.541Z,39.00
2023-01-09T05:58:43.461Z,36.60
2023-01-09T06:01:11.448Z,35.70
2023-01-09T06:03:39.374Z,36.10
2023-01-09T06:06:07.698Z,40.30
2023-01-09T06:08:35.627Z,37.80
2023-01-09T06:11:03.446Z,31.40
2023-01-09T06:13:31.332Z,29.00
2023-01-09T06:16:02.438Z,27.50
2023-01-09T06:18:30.372Z,27.50
2023-01-09T06:20:58.252Z,25.30
2023-01-09T06:23:26.110Z,26.20
2023-01-09T06:25:53.955Z,24.80
2023-01-09T06:28:22.241Z,25.90
2023-01-09T06:30:52.363Z,28.40
2023-01-09T06:33:21.074Z,30.90
2023-01-09T06:35:48.987Z,32.40
2023-01-09T06:38:16.952Z,33.10
2023-01-09T06:40:45.117Z,34.90
2023-01-09T06:43:13.186Z,34.00
2023-01-09T06:45:43.727Z,34.80
2023-01-09T06:48:12.416Z,37.60
2023-01-09T06:50:40.692Z,34.70
2023-01-09T06:53:08.725Z,32.60
2023-01-09T06:55:36.930Z,30.40
2023-01-09T06:58:04.783Z,30.60
2023-01-09T07:00:32.830Z,28.90
2023-01-09T07:03:01.234Z,31.40
2023-01-09T07:05:29.887Z,34.70
2023-01-09T07:07:57.697Z,42.30
2023-01-09T07:10:25.696Z,40.30
2023-01-09T07:12:53.641Z,39.80
2023-01-09T07:15:21.659Z,33.80
2023-01-09T07:17:51.899Z,27.50
2023-01-09T07:20:20.220Z,27.20
2023-01-09T07:22:48.143Z,27.90
2023-01-09T07:25:16.098Z,31.30
2023-01-09T07:27:44.021Z,35.40
2023-01-09T07:30:12.920Z,37.50
2023-01-09T07:32:41.184Z,34.00
2023-01-09T07:35:10.350Z,32.00
2023-01-09T07:37:38.377Z,29.90
2023-01-09T07:40:07.350Z,28.60
2023-01-09T07:42:35.193Z,27.90
2023-01-09T07:45:03.313Z,29.00
2023-01-09T07:47:31.336Z,30.10
2023-01-09T07:49:59.217Z,28.10
2023-01-09T07:52:28.047Z,28.70
2023-01-09T07:54:55.942Z,30.10
2023-01-09T07:57:23.806Z,29.60
2023-01-09T07:59:51.902Z,32.50
2023-01-09T08:02:19.880Z,38.10
2023-01-09T08:04:47.965Z,37.40
2023-01-09T08:07:15.769Z,44.20
2023-01-09T08:09:43.659Z,40.40
2023-01-09T08:12:11.525Z,39.10
2023-01-09T08:14:39.591Z,41.60
2023-01-09T08:17:09.411Z,40.90
2023-01-09T08:19:37.566Z,38.10
2023-01-09T08:22:05.428Z,36.60
2023-01-09T08:24:33.407Z,35.20
2023-01-09T08:27:01.336Z,32.30
2023-01-09T08:29:30.480Z,30.40
2023-01-09T08:31:58.404Z,32.50
2023-01-09T08:34:26.573Z,32.00
2023-01-09T08:36:54.612Z,32.60
2023-01-09T08:39:22.589Z,32.70
2023-01-09T08:42:09.017Z,34.70
2023-01-09T08:44:55.310Z,36.90
2023-01-09T08:47:24.488Z,39.90
2023-01-09T08:49:52.463Z,43.60
2023-01-09T08:52:20.290Z,40.30
2023-01-09T08:54:48.191Z,39.50
2023-01-09T08:57:16.103Z,39.90
2023-01-09T08:59:44.024Z,39.40
2023-01-09T09:02:11.943Z,41.00
2023-01-09T09:04:39.949Z,45.50
2023-01-09T09:07:07.881Z,58.50
2023-01-09T09:09:35.721Z,44.10
2023-01-09T09:12:03.717Z,38.60
2023-01-09T09:14:50.366Z,36.20
2023-01-09T09:17:18.186Z,33.60
2023-01-09T09:19:46.333Z,34.90
2023-01-09T09:22:14.185Z,36.50
2023-01-09T09:24:42.107Z,39.10
2023-01-09T09:27:09.987Z,40.50
2023-01-09T09:29:37.967Z,40.50
2023-01-09T09:32:05.945Z,38.80
2023-01-09T09:34:33.820Z,36.80
2023-01-09T09:37:01.901Z,34.90
2023-01-09T09:39:29.947Z,32.80
2023-01-09T09:43:00.931Z,34.60
2023-01-09T09:46:02.396Z,34.00
2023-01-09T09:48:40.783Z,35.40
2023-01-09T09:51:08.696Z,35.30
2023-01-09T09:54:00.010Z,39.00
2023-01-09T09:56:30.938Z,34.60
2023-01-09T09:59:07.003Z,34.70
2023-01-09T10:01:49.061Z,36.20
2023-01-09T10:04:18.958Z,37.80
2023-01-09T10:06:55.167Z,41.10
2023-01-09T10:10:05.881Z,46.80
2023-01-09T10:12:57.563Z,44.90
2023-01-09T10:15:35.144Z,42.90
2023-01-09T10:18:12.914Z,46.60
2023-01-09T10:21:05.611Z,42.70
2023-01-09T10:24:08.897Z,38.90
2023-01-09T10:26:48.521Z,38.80
2023-01-09T10:29:19.888Z,35.20
2023-01-09T10:32:15.937Z,34.40
2023-01-09T10:35:47.318Z,30.80
2023-01-09T10:38:22.158Z,29.80
2023-01-09T10:41:03.947Z,30.30
2023-01-09T10:43:48.272Z,29.30
2023-01-09T10:46:32.272Z,29.10
2023-01-09T10:49:05.268Z,27.90
2023-01-09T10:51:50.752Z,30.40
2023-01-09T10:54:23.873Z,30.90
2023-01-09T10:57:01.004Z,32.70
2023-01-09T10:59:30.957Z,32.70
2023-01-09T11:01:59.026Z,29.90
2023-01-09T11:04:35.203Z,30.50
2023-01-09T11:07:15.411Z,29.60
2023-01-09T11:10:08.208Z,29.80
2023-01-09T11:12:41.603Z,28.60
2023-01-09T11:15:16.077Z,27.80
2023-01-09T11:17:44.258Z,27.30
2023-01-09T11:20:30.049Z,28.50
2023-01-09T11:22:59.003Z,28.40
2023-01-09T11:25:29.280Z,28.60
2023-01-09T11:28:02.951Z,29.00
2023-01-09T11:30:34.207Z,30.30
2023-01-09T11:33:16.041Z,29.40
2023-01-09T11:36:07.998Z,29.40
2023-01-09T11:38:57.194Z,30.20
2023-01-09T11:41:31.235Z,29.70
2023-01-09T11:44:00.097Z,34.10
2023-01-09T11:46:44.035Z,35.90
2023-01-09T11:49:15.023Z,34.00
2023-01-09T11:51:43.399Z,30.60
2023-01-09T11:54:31.956Z,30.80
2023-01-09T11:57:00.038Z,32.40
2023-01-09T11:59:30.433Z,30.30
2023-01-09T12:02:04.765Z,32.60
2023-01-09T12:04:44.454Z,33.50
2023-01-09T12:07:54.226Z,32.40
2023-01-09T12:10:41.621Z,37.20
2023-01-09T12:13:21.796Z,38.80
2023-01-09T12:16:15.735Z,37.50
2023-01-09T12:19:07.732Z,43.90
2023-01-09T12:21:36.705Z,39.50
2023-01-09T12:24:48.728Z,33.80
2023-01-09T12:27:44.059Z,30.30
2023-01-09T12:30:12.143Z,31.80
2023-01-09T12:33:04.444Z,31.80
2023-01-09T12:36:07.358Z,37.80
2023-01-09T12:39:00.208Z,37.00
2023-01-09T12:42:03.231Z,35.40
2023-01-09T12:44:55.539Z,32.40
2023-01-09T12:47:45.825Z,31.70
2023-01-09T12:50:55.029Z,28.90
2023-01-09T12:53:35.922Z,28.70
2023-01-09T12:56:21.042Z,29.90
2023-01-09T12:58:57.755Z,27.70
2023-01-09T13:01:41.592Z,27.20
2023-01-09T13:04:34.825Z,32.60
2023-01-09T13:07:14.298Z,30.80
2023-01-09T13:10:06.932Z,30.90
2023-01-09T13:12:38.598Z,28.40
2023-01-09T13:15:20.912Z,29.70
2023-01-09T13:17:53.416Z,29.10
2023-01-09T13:20:42.145Z,29.10
2023-01-09T13:23:52.266Z,28.50
2023-01-09T13:26:25.085Z,26.90
2023-01-09T13:29:20.057Z,27.70
2023-01-09T13:31:51.890Z,27.10
2023-01-09T13:34:24.247Z,28.20
2023-01-09T13:36:55.342Z,26.70
2023-01-09T13:39:29.938Z,25.80
2023-01-09T13:42:23.576Z,26.80
2023-01-09T13:44:56.072Z,27.60
2023-01-09T13:47:30.570Z,27.70
2023-01-09T13:50:09.253Z,26.20
2023-01-09T13:52:41.560Z,24.90
2023-01-09T13:55:12.433Z,26.70
2023-01-09T13:58:04.610Z,27.40
2023-01-09T14:00:35.520Z,28.20
2023-01-09T14:03:23.579Z,26.60
2023-01-09T14:05:53.952Z,25.40
2023-01-09T14:08:24.860Z,27.20
2023-01-09T14:11:02.454Z,27.70
2023-01-09T14:13:41.354Z,25.80
2023-01-09T14:16:23.857Z,25.80
2023-01-09T14:19:16.439Z,27.50
2023-01-09T14:21:52.653Z,27.20
2023-01-09T14:24:44.152Z,26.50
2023-01-09T14:27:59.513Z,25.60
2023-01-09T14:30:36.161Z,25.50
2023-01-09T14:33:19.444Z,26.80
2023-01-09T14:36:15.143Z,24.30
2023-01-09T14:38:48.457Z,25.10
2023-01-09T14:42:05.760Z,24.30
2023-01-09T14:44:53.676Z,26.40
2023-01-09T14:47:47.130Z,23.10
2023-01-09T14:50:30.139Z,23.40
2023-01-09T14:55:57.647Z,22.70
2023-01-09T14:58:31.472Z,23.00
2023-01-09T15:01:18.983Z,24.00
2023-01-09T15:03:52.156Z,21.10
2023-01-09T15:06:42.027Z,21.20
2023-01-09T15:09:23.351Z,20.80
2023-01-09T15:11:53.723Z,19.40
2023-01-09T15:14:42.469Z,20.60
2023-01-09T15:17:37.060Z,18.80
2023-01-09T15:20:06.700Z,18.80
2023-01-09T15:22:38.073Z,18.30
2023-01-09T15:25:40.475Z,17.90
2023-01-09T15:28:32.211Z,18.40
2023-01-09T15:31:07.505Z,17.70
2023-01-09T15:33:35.777Z,18.10
2023-01-09T15:36:15.321Z,18.50
2023-01-09T15:38:43.721Z,18.30
2023-01-09T15:41:35.753Z,18.20
2023-01-09T15:44:06.252Z,18.50
2023-01-09T15:46:34.415Z,18.00
2023-01-09T15:49:02.417Z,17.80
2023-01-09T15:51:31.902Z,19.10
2023-01-09T15:54:01.169Z,17.40
2023-01-09T15:56:35.984Z,17.60
2023-01-09T15:59:27.777Z,18.00
2023-01-09T16:02:20.234Z,18.10
2023-01-09T16:04:49.210Z,18.30
2023-01-09T16:07:19.692Z,18.20
2023-01-09T16:09:49.905Z,16.80
2023-01-09T16:12:24.195Z,17.10
2023-01-09T16:14:59.919Z,18.30
2023-01-09T16:17:32.058Z,17.90
2023-01-09T16:20:15.744Z,16.80
2023-01-09T16:22:55.706Z,17.40
2023-01-09T16:25:34.391Z,16.90
2023-01-09T16:28:30.818Z,16.50
2023-01-09T16:31:05.272Z,16.60
2023-01-09T16:33:33.392Z,16.30
2023-01-09T16:36:03.560Z,16.80
2023-01-09T16:38:31.486Z,16.90
2023-01-09T16:41:21.961Z,27.40
2023-01-09T16:43:50.897Z,18.80
2023-01-09T16:46:21.205Z,18.40
2023-01-09T16:48:49.459Z,18.30
2023-01-09T16:51:22.974Z,16.70
2023-01-09T16:53:50.985Z,18.40
2023-01-09T16:56:23.832Z,17.60
2023-01-09T16:58:54.683Z,25.30
2023-01-09T17:01:23.425Z,31.80
2023-01-09T17:03:52.555Z,35.40
2023-01-09T17:06:28.638Z,40.40
2023-01-09T17:08:57.579Z,38.60
2023-01-09T17:11:31.521Z,25.80
2023-01-09T17:14:00.774Z,22.70
2023-01-09T17:16:30.122Z,22.20
2023-01-09T17:18:58.082Z,22.30
2023-01-09T17:21:29.106Z,18.00
2023-01-09T17:24:17.405Z,17.80
2023-01-09T17:27:08.196Z,17.50
2023-01-09T17:29:36.737Z,19.20
2023-01-09T17:32:07.278Z,21.80
2023-01-09T17:34:35.233Z,32.80
2023-01-09T17:37:04.677Z,32.60
2023-01-09T17:39:32.773Z,35.00
2023-01-09T17:42:01.998Z,36.80
2023-01-09T17:44:29.922Z,36.10
2023-01-09T17:46:57.783Z,22.50
2023-01-09T17:49:27.264Z,18.00
2023-01-09T17:51:55.141Z,17.70
2023-01-09T17:54:23.032Z,17.20
2023-01-09T17:56:51.796Z,16.90
2023-01-09T17:59:19.823Z,17.90
2023-01-09T18:01:48.445Z,17.60
2023-01-09T18:04:16.384Z,16.10
2023-01-09T18:06:44.594Z,18.60
2023-01-09T18:09:17.216Z,17.50
2023-01-09T18:14:13.947Z,16.70
2023-01-09T18:16:42.359Z,17.70
2023-01-09T18:19:10.555Z,18.00
2023-01-09T18:21:38.535Z,18.50
2023-01-09T18:24:07.214Z,17.60
2023-01-09T18:26:35.308Z,16.40
2023-01-09T18:29:03.743Z,17.70
2023-01-09T18:31:31.965Z,16.20
2023-01-09T18:34:03.308Z,16.80
2023-01-09T18:36:31.702Z,15.40
2023-01-09T18:39:02.225Z,16.40
2023-01-09T18:41:31.250Z,15.80
2023-01-09T18:44:01.367Z,14.70
2023-01-09T18:46:32.798Z,15.60
2023-01-09T18:49:05.027Z,16.30
2023-01-09T18:51:35.971Z,15.60
2023-01-09T18:54:04.834Z,15.10
2023-01-09T18:56:32.930Z,16.00
2023-01-09T18:59:00.936Z,15.50
2023-01-09T19:01:29.848Z,16.20
2023-01-09T19:04:00.003Z,16.50
2023-01-09T19:06:29.709Z,15.40
2023-01-09T19:09:00.880Z,15.50
2023-01-09T19:11:28.975Z,15.70
2023-01-09T19:13:57.024Z,17.50
2023-01-09T19:16:25.008Z,17.10
2023-01-09T19:18:52.950Z,17.20
2023-01-09T19:21:23.786Z,18.00
2023-01-09T19:23:51.751Z,16.30
2023-01-09T19:26:26.077Z,16.30
2023-01-09T19:28:57.217Z,15.80
2023-01-09T19:31:28.462Z,15.10
2023-01-09T19:33:57.853Z,15.60
2023-01-09T19:36:27.093Z,15.10
2023-01-09T19:39:02.849Z,14.80
2023-01-09T19:41:30.849Z,14.00
2023-01-09T19:44:02.369Z,14.70
2023-01-09T19:46:33.509Z,14.70
2023-01-09T19:49:04.773Z,15.70
2023-01-09T19:51:34.011Z,14.20
2023-01-09T19:56:31.765Z,13.90
2023-01-09T19:59:02.675Z,14.10
2023-01-09T20:01:37.393Z,14.70
2023-01-09T20:04:10.299Z,13.00
2023-01-09T20:06:45.437Z,14.70
2023-01-09T20:09:17.174Z,14.80
2023-01-09T20:11:45.494Z,15.30
2023-01-09T20:14:15.786Z,15.90
2023-01-09T20:16:44.588Z,16.30
2023-01-09T20:19:16.360Z,22.90
2023-01-09T20:21:44.799Z,42.40
2023-01-09T20:24:16.960Z,84.20
2023-01-09T20:26:48.399Z,72.30
2023-01-09T20:29:17.034Z,56.20
2023-01-09T20:31:45.261Z,62.70
2023-01-09T20:34:15.136Z,46.90
2023-01-09T20:36:43.597Z,46.10
2023-01-09T20:39:12.452Z,48.80
2023-01-09T20:41:42.993Z,49.60
2023-01-09T20:44:14.435Z,54.80
2023-01-09T20:46:48.253Z,46.60
2023-01-09T20:49:20.913Z,45.70
2023-01-09T20:51:52.049Z,52.80
2023-01-09T20:54:21.723Z,50.30
2023-01-09T20:56:50.495Z,48.40
2023-01-09T20:59:20.991Z,40.00
2023-01-09T21:01:50.191Z,40.70
2023-01-09T21:04:18.609Z,39.40
2023-01-09T21:06:48.950Z,33.00
2023-01-09T21:09:17.913Z,28.50
2023-01-09T21:11:45.931Z,25.90
2023-01-09T21:14:13.955Z,23.30
2023-01-09T21:16:42.493Z,24.60
2023-01-09T21:19:12.000Z,24.70
2023-01-09T21:21:39.991Z,22.50
2023-01-09T21:24:08.265Z,18.20
2023-01-09T21:26:36.146Z,20.80
2023-01-09T21:29:08.372Z,15.70
2023-01-09T21:31:36.586Z,18.40
2023-01-09T21:34:07.363Z,20.00
2023-01-09T21:36:36.138Z,19.10
2023-01-09T21:39:08.100Z,20.30
2023-01-09T21:41:54.857Z,21.20
2023-01-09T21:44:41.194Z,26.90
2023-01-09T21:47:09.405Z,21.20
2023-01-09T21:49:41.623Z,22.00
2023-01-09T21:52:14.046Z,25.70
2023-01-09T21:54:42.516Z,24.30
2023-01-09T21:57:10.990Z,24.40
2023-01-09T21:59:39.023Z,25.90
2023-01-09T22:02:07.038Z,24.60
2023-01-09T22:04:34.868Z,26.10
2023-01-09T22:07:02.792Z,25.30
2023-01-09T22:09:30.806Z,25.00
2023-01-09T22:11:58.662Z,27.70
2023-01-09T22:14:26.703Z,27.30
2023-01-09T22:16:54.699Z,26.80
2023-01-09T22:19:22.694Z,24.80
2023-01-09T22:21:50.683Z,24.20
2023-01-09T22:24:19.183Z,28.00
2023-01-09T22:26:48.004Z,27.10
2023-01-09T22:29:16.387Z,28.50
2023-01-09T22:31:50.254Z,26.30
2023-01-09T22:34:20.670Z,25.80
2023-01-09T22:36:48.706Z,28.90
2023-01-09T22:39:19.020Z,28.20
2023-01-09T22:41:52.534Z,30.10
2023-01-09T22:44:20.520Z,29.30
2023-01-09T22:46:48.893Z,29.60
2023-01-09T22:49:17.971Z,28.00
2023-01-09T22:51:45.857Z,26.30
2023-01-09T22:54:16.459Z,26.50
2023-01-09T22:56:44.592Z,31.80
2023-01-09T22:59:12.567Z,31.20
2023-01-09T23:01:40.503Z,28.50
2023-01-09T23:04:14.804Z,25.90
2023-01-09T23:06:43.406Z,23.60
2023-01-09T23:09:11.373Z,21.40
2023-01-09T23:11:57.664Z,20.20
2023-01-09T23:14:25.746Z,20.80
2023-01-09T23:16:55.455Z,18.90
2023-01-09T23:19:23.563Z,19.20
2023-01-09T23:21:51.514Z,18.80
2023-01-09T23:24:19.767Z,18.40
2023-01-09T23:26:47.920Z,21.70
2023-01-09T23:29:16.001Z,19.80
2023-01-09T23:31:44.684Z,20.50
2023-01-09T23:34:19.752Z,20.20
2023-01-09T23:36:47.727Z,18.90
2023-01-09T23:39:15.789Z,18.80
2023-01-09T23:42:02.275Z,19.10
2023-01-09T23:44:30.591Z,19.10
2023-01-09T23:46:58.710Z,20.70
2023-01-09T23:49:26.704Z,18.80
2023-01-09T23:51:54.744Z,20.30
2023-01-09T23:54:22.671Z,21.10
2023-01-09T23:56:50.581Z,21.20
2023-01-09T23:59:18.650Z,21.10
